sensor_id;sensor_type;location;lat;lon;timestamp;P1;durP1;ratioP1;P2;durP2;ratioP2
15383;SDS011;7790;53.022;12.968;2023-10-09T00:01:07;8.63;;;5.53;;
15383;SDS011;7790;53.022;12.968;2023-10-09T00:05:14;6.77;;;5.20;;
15383;SDS011;7790;53.022;12.968;2023-10-09T00:09:23;6.80;;;5.13;;
15383;SDS011;7790;53.022;12.968;2023-10-09T00:13:24;7.50;;;5.37;;
15383;SDS011;7790;53.022;12.968;2023-10-09T00:17:32;6.63;;;5.27;;
15383;SDS011;7790;53.022;12.968;2023-10-09T00:21:33;5.67;;;5.07;;
15383;SDS011;7790;53.022;12.968;2023-10-09T00:25:35;5.87;;;5.03;;
15383;SDS011;7790;53.022;12.968;2023-10-09T00:29:36;6.73;;;5.00;;
15383;SDS011;7790;53.022;12.968;2023-10-09T00:33:42;5.37;;;4.40;;
15383;SDS011;7790;53.022;12.968;2023-10-09T00:37:43;7.50;;;5.10;;
15383;SDS011;7790;53.022;12.968;2023-10-09T00:41:45;6.27;;;4.50;;
15383;SDS011;7790;53.022;12.968;2023-10-09T00:45:46;5.50;;;4.50;;
15383;SDS011;7790;53.022;12.968;2023-10-09T00:49:51;5.20;;;4.67;;
15383;SDS011;7790;53.022;12.968;2023-10-09T00:54:02;8.47;;;4.50;;
15383;SDS011;7790;53.022;12.968;2023-10-09T00:58:14;6.33;;;4.00;;
15383;SDS011;7790;53.022;12.968;2023-10-09T01:02:23;4.60;;;4.03;;
15383;SDS011;7790;53.022;12.968;2023-10-09T01:06:36;6.67;;;4.47;;
15383;SDS011;7790;53.022;12.968;2023-10-09T01:10:45;5.87;;;3.83;;
15383;SDS011;7790;53.022;12.968;2023-10-09T01:14:52;4.23;;;3.70;;
15383;SDS011;7790;53.022;12.968;2023-10-09T01:18:55;4.87;;;4.07;;
15383;SDS011;7790;53.022;12.968;2023-10-09T01:23:00;4.33;;;3.83;;
15383;SDS011;7790;53.022;12.968;2023-10-09T01:27:01;4.63;;;3.47;;
15383;SDS011;7790;53.022;12.968;2023-10-09T01:31:05;4.37;;;3.73;;
15383;SDS011;7790;53.022;12.968;2023-10-09T01:35:06;4.03;;;3.50;;
15383;SDS011;7790;53.022;12.968;2023-10-09T01:39:20;6.97;;;3.50;;
15383;SDS011;7790;53.022;12.968;2023-10-09T01:43:27;5.60;;;3.87;;
15383;SDS011;7790;53.022;12.968;2023-10-09T01:47:28;3.97;;;3.50;;
15383;SDS011;7790;53.022;12.968;2023-10-09T01:51:31;4.60;;;3.40;;
15383;SDS011;7790;53.022;12.968;2023-10-09T01:55:36;4.30;;;3.70;;
15383;SDS011;7790;53.022;12.968;2023-10-09T01:59:41;3.97;;;3.57;;
15383;SDS011;7790;53.022;12.968;2023-10-09T02:03:50;3.33;;;3.03;;
15383;SDS011;7790;53.022;12.968;2023-10-09T02:07:52;5.07;;;3.30;;
15383;SDS011;7790;53.022;12.968;2023-10-09T02:11:53;3.30;;;2.90;;
15383;SDS011;7790;53.022;12.968;2023-10-09T02:15:55;6.30;;;3.50;;
15383;SDS011;7790;53.022;12.968;2023-10-09T02:19:57;3.03;;;2.83;;
15383;SDS011;7790;53.022;12.968;2023-10-09T02:24:03;3.53;;;3.00;;
15383;SDS011;7790;53.022;12.968;2023-10-09T02:28:10;3.30;;;3.00;;
15383;SDS011;7790;53.022;12.968;2023-10-09T02:32:20;5.67;;;3.23;;
15383;SDS011;7790;53.022;12.968;2023-10-09T02:36:26;3.60;;;2.90;;
15383;SDS011;7790;53.022;12.968;2023-10-09T02:40:28;3.07;;;2.67;;
15383;SDS011;7790;53.022;12.968;2023-10-09T02:44:40;3.60;;;3.13;;
15383;SDS011;7790;53.022;12.968;2023-10-09T02:48:49;3.37;;;2.80;;
15383;SDS011;7790;53.022;12.968;2023-10-09T02:52:51;2.93;;;2.63;;
15383;SDS011;7790;53.022;12.968;2023-10-09T02:56:59;3.80;;;2.73;;
15383;SDS011;7790;53.022;12.968;2023-10-09T03:01:11;3.10;;;2.80;;
15383;SDS011;7790;53.022;12.968;2023-10-09T03:05:13;5.57;;;2.93;;
15383;SDS011;7790;53.022;12.968;2023-10-09T03:09:18;3.53;;;2.50;;
15383;SDS011;7790;53.022;12.968;2023-10-09T03:13:26;2.67;;;2.43;;
15383;SDS011;7790;53.022;12.968;2023-10-09T03:17:29;3.70;;;2.60;;
15383;SDS011;7790;53.022;12.968;2023-10-09T03:21:29;2.37;;;2.17;;
15383;SDS011;7790;53.022;12.968;2023-10-09T03:25:30;2.60;;;2.40;;
15383;SDS011;7790;53.022;12.968;2023-10-09T03:29:31;2.60;;;2.40;;
15383;SDS011;7790;53.022;12.968;2023-10-09T03:33:33;2.50;;;2.30;;
15383;SDS011;7790;53.022;12.968;2023-10-09T03:37:34;3.77;;;2.70;;
15383;SDS011;7790;53.022;12.968;2023-10-09T03:41:35;3.03;;;2.47;;
15383;SDS011;7790;53.022;12.968;2023-10-09T03:45:42;2.60;;;2.40;;
15383;SDS011;7790;53.022;12.968;2023-10-09T03:49:50;3.17;;;2.60;;
15383;SDS011;7790;53.022;12.968;2023-10-09T03:53:52;4.47;;;2.60;;
15383;SDS011;7790;53.022;12.968;2023-10-09T03:57:56;4.07;;;2.63;;
15383;SDS011;7790;53.022;12.968;2023-10-09T04:01:58;3.00;;;2.47;;
15383;SDS011;7790;53.022;12.968;2023-10-09T04:05:59;2.70;;;2.30;;
15383;SDS011;7790;53.022;12.968;2023-10-09T04:10:00;2.83;;;2.00;;
15383;SDS011;7790;53.022;12.968;2023-10-09T04:14:24;2.87;;;2.27;;
15383;SDS011;7790;53.022;12.968;2023-10-09T04:18:32;2.97;;;2.10;;
15383;SDS011;7790;53.022;12.968;2023-10-09T04:22:33;2.50;;;2.23;;
15383;SDS011;7790;53.022;12.968;2023-10-09T04:26:45;2.40;;;2.13;;
15383;SDS011;7790;53.022;12.968;2023-10-09T04:30:46;2.50;;;2.30;;
15383;SDS011;7790;53.022;12.968;2023-10-09T04:34:53;3.00;;;2.53;;
15383;SDS011;7790;53.022;12.968;2023-10-09T04:39:17;4.80;;;2.30;;
15383;SDS011;7790;53.022;12.968;2023-10-09T04:43:30;13.67;;;2.50;;
15383;SDS011;7790;53.022;12.968;2023-10-09T04:47:33;3.70;;;2.30;;
15383;SDS011;7790;53.022;12.968;2023-10-09T04:51:58;3.80;;;1.90;;
15383;SDS011;7790;53.022;12.968;2023-10-09T04:56:07;5.40;;;2.10;;
15383;SDS011;7790;53.022;12.968;2023-10-09T05:00:16;2.53;;;2.00;;
15383;SDS011;7790;53.022;12.968;2023-10-09T05:04:26;6.13;;;1.93;;
15383;SDS011;7790;53.022;12.968;2023-10-09T05:08:41;1.80;;;1.70;;
15383;SDS011;7790;53.022;12.968;2023-10-09T05:12:46;2.93;;;2.00;;
15383;SDS011;7790;53.022;12.968;2023-10-09T05:16:47;2.60;;;1.80;;
15383;SDS011;7790;53.022;12.968;2023-10-09T05:20:54;5.43;;;2.07;;
15383;SDS011;7790;53.022;12.968;2023-10-09T05:25:17;1.90;;;1.80;;
15383;SDS011;7790;53.022;12.968;2023-10-09T05:29:38;2.60;;;1.70;;
15383;SDS011;7790;53.022;12.968;2023-10-09T05:33:59;1.70;;;1.60;;
15383;SDS011;7790;53.022;12.968;2023-10-09T05:38:01;1.93;;;1.70;;
15383;SDS011;7790;53.022;12.968;2023-10-09T05:42:22;2.67;;;1.93;;
15383;SDS011;7790;53.022;12.968;2023-10-09T05:46:28;2.40;;;1.60;;
15383;SDS011;7790;53.022;12.968;2023-10-09T05:50:35;2.70;;;1.67;;
15383;SDS011;7790;53.022;12.968;2023-10-09T05:54:38;2.40;;;1.60;;
15383;SDS011;7790;53.022;12.968;2023-10-09T05:59:02;1.90;;;1.70;;
15383;SDS011;7790;53.022;12.968;2023-10-09T06:03:21;1.93;;;1.60;;
15383;SDS011;7790;53.022;12.968;2023-10-09T06:07:25;4.70;;;1.93;;
15383;SDS011;7790;53.022;12.968;2023-10-09T06:11:46;3.10;;;1.50;;
15383;SDS011;7790;53.022;12.968;2023-10-09T06:15:54;1.93;;;1.60;;
15383;SDS011;7790;53.022;12.968;2023-10-09T06:20:20;1.80;;;1.70;;
15383;SDS011;7790;53.022;12.968;2023-10-09T06:24:39;3.63;;;1.80;;
15383;SDS011;7790;53.022;12.968;2023-10-09T06:28:54;1.30;;;1.20;;
15383;SDS011;7790;53.022;12.968;2023-10-09T06:33:13;1.87;;;1.60;;
15383;SDS011;7790;53.022;12.968;2023-10-09T06:37:29;3.33;;;1.80;;
15383;SDS011;7790;53.022;12.968;2023-10-09T06:41:32;9.07;;;2.20;;
15383;SDS011;7790;53.022;12.968;2023-10-09T06:45:39;4.50;;;1.70;;
15383;SDS011;7790;53.022;12.968;2023-10-09T06:49:45;3.73;;;1.50;;
15383;SDS011;7790;53.022;12.968;2023-10-09T06:54:06;2.50;;;1.90;;
15383;SDS011;7790;53.022;12.968;2023-10-09T06:58:09;1.93;;;1.53;;
15383;SDS011;7790;53.022;12.968;2023-10-09T07:02:15;2.70;;;1.50;;
15383;SDS011;7790;53.022;12.968;2023-10-09T07:06:39;1.63;;;1.50;;
15383;SDS011;7790;53.022;12.968;2023-10-09T07:10:39;2.23;;;1.70;;
15383;SDS011;7790;53.022;12.968;2023-10-09T07:14:40;2.30;;;1.30;;
15383;SDS011;7790;53.022;12.968;2023-10-09T07:18:41;1.87;;;1.20;;
15383;SDS011;7790;53.022;12.968;2023-10-09T07:22:49;5.73;;;1.83;;
15383;SDS011;7790;53.022;12.968;2023-10-09T07:26:53;5.67;;;1.80;;
15383;SDS011;7790;53.022;12.968;2023-10-09T07:30:55;4.33;;;1.90;;
15383;SDS011;7790;53.022;12.968;2023-10-09T07:34:59;5.27;;;1.57;;
15383;SDS011;7790;53.022;12.968;2023-10-09T07:39:01;5.83;;;1.77;;
15383;SDS011;7790;53.022;12.968;2023-10-09T07:43:02;5.73;;;2.00;;
15383;SDS011;7790;53.022;12.968;2023-10-09T07:47:05;4.07;;;1.90;;
15383;SDS011;7790;53.022;12.968;2023-10-09T07:51:18;3.47;;;1.97;;
15383;SDS011;7790;53.022;12.968;2023-10-09T07:55:23;1.77;;;1.60;;
15383;SDS011;7790;53.022;12.968;2023-10-09T07:59:26;5.57;;;2.30;;
15383;SDS011;7790;53.022;12.968;2023-10-09T08:03:31;2.23;;;1.77;;
15383;SDS011;7790;53.022;12.968;2023-10-09T08:07:34;3.83;;;2.30;;
15383;SDS011;7790;53.022;12.968;2023-10-09T08:11:35;4.07;;;2.33;;
15383;SDS011;7790;53.022;12.968;2023-10-09T08:16:00;3.47;;;1.80;;
15383;SDS011;7790;53.022;12.968;2023-10-09T08:20:04;4.50;;;1.60;;
15383;SDS011;7790;53.022;12.968;2023-10-09T08:24:17;3.93;;;2.03;;
15383;SDS011;7790;53.022;12.968;2023-10-09T08:28:41;5.33;;;2.37;;
15383;SDS011;7790;53.022;12.968;2023-10-09T08:32:45;5.10;;;2.23;;
15383;SDS011;7790;53.022;12.968;2023-10-09T08:37:03;4.07;;;2.07;;
15383;SDS011;7790;53.022;12.968;2023-10-09T08:41:11;5.27;;;2.37;;
15383;SDS011;7790;53.022;12.968;2023-10-09T08:45:21;4.10;;;2.00;;
15383;SDS011;7790;53.022;12.968;2023-10-09T08:49:25;4.60;;;2.10;;
15383;SDS011;7790;53.022;12.968;2023-10-09T08:53:27;4.97;;;2.00;;
15383;SDS011;7790;53.022;12.968;2023-10-09T08:57:28;6.73;;;2.37;;
15383;SDS011;7790;53.022;12.968;2023-10-09T09:01:31;2.03;;;1.80;;
15383;SDS011;7790;53.022;12.968;2023-10-09T09:05:32;3.27;;;2.07;;
15383;SDS011;7790;53.022;12.968;2023-10-09T09:09:36;2.47;;;2.03;;
15383;SDS011;7790;53.022;12.968;2023-10-09T09:14:22;3.17;;;2.03;;
15383;SDS011;7790;53.022;12.968;2023-10-09T09:18:05;6.00;;;1.93;;
15383;SDS011;7790;53.022;12.968;2023-10-09T09:22:06;3.40;;;1.73;;
15383;SDS011;7790;53.022;12.968;2023-10-09T09:26:14;3.63;;;2.03;;
15383;SDS011;7790;53.022;12.968;2023-10-09T09:30:25;2.60;;;1.80;;
15383;SDS011;7790;53.022;12.968;2023-10-09T09:34:43;3.07;;;1.70;;
15383;SDS011;7790;53.022;12.968;2023-10-09T09:38:49;2.93;;;2.00;;
15383;SDS011;7790;53.022;12.968;2023-10-09T09:42:51;1.97;;;1.70;;
15383;SDS011;7790;53.022;12.968;2023-10-09T09:46:52;2.20;;;2.00;;
15383;SDS011;7790;53.022;12.968;2023-10-09T09:50:57;2.70;;;2.07;;
15383;SDS011;7790;53.022;12.968;2023-10-09T09:54:58;3.47;;;1.73;;
15383;SDS011;7790;53.022;12.968;2023-10-09T09:59:02;4.37;;;2.00;;
15383;SDS011;7790;53.022;12.968;2023-10-09T10:03:12;1.70;;;1.60;;
15383;SDS011;7790;53.022;12.968;2023-10-09T10:07:18;2.60;;;1.50;;
15383;SDS011;7790;53.022;12.968;2023-10-09T10:11:41;2.37;;;1.80;;
15383;SDS011;7790;53.022;12.968;2023-10-09T10:16:08;3.27;;;1.80;;
15383;SDS011;7790;53.022;12.968;2023-10-09T10:20:20;1.83;;;1.60;;
15383;SDS011;7790;53.022;12.968;2023-10-09T10:29:34;2.97;;;1.93;;
15383;SDS011;7790;53.022;12.968;2023-10-09T10:37:56;2.60;;;1.60;;
15383;SDS011;7790;53.022;12.968;2023-10-09T10:42:08;2.33;;;1.63;;
15383;SDS011;7790;53.022;12.968;2023-10-09T10:46:14;2.73;;;1.50;;
15383;SDS011;7790;53.022;12.968;2023-10-09T10:50:30;2.23;;;1.70;;
15383;SDS011;7790;53.022;12.968;2023-10-09T10:54:31;1.40;;;1.30;;
15383;SDS011;7790;53.022;12.968;2023-10-09T10:58:32;2.43;;;1.67;;
15383;SDS011;7790;53.022;12.968;2023-10-09T11:02:47;1.43;;;1.33;;
15383;SDS011;7790;53.022;12.968;2023-10-09T11:06:50;1.70;;;1.60;;
15383;SDS011;7790;53.022;12.968;2023-10-09T11:10:51;2.80;;;1.40;;
15383;SDS011;7790;53.022;12.968;2023-10-09T11:14:54;2.77;;;1.37;;
15383;SDS011;7790;53.022;12.968;2023-10-09T11:19:21;1.50;;;1.33;;
15383;SDS011;7790;53.022;12.968;2023-10-09T11:23:29;2.07;;;1.43;;
15383;SDS011;7790;53.022;12.968;2023-10-09T11:27:47;2.10;;;1.40;;
15383;SDS011;7790;53.022;12.968;2023-10-09T11:31:57;1.93;;;1.40;;
15383;SDS011;7790;53.022;12.968;2023-10-09T11:35:59;2.07;;;1.40;;
15383;SDS011;7790;53.022;12.968;2023-10-09T11:40:01;1.43;;;1.33;;
15383;SDS011;7790;53.022;12.968;2023-10-09T11:44:02;1.30;;;1.20;;
15383;SDS011;7790;53.022;12.968;2023-10-09T11:48:17;2.20;;;1.30;;
15383;SDS011;7790;53.022;12.968;2023-10-09T11:52:34;5.70;;;1.90;;
15383;SDS011;7790;53.022;12.968;2023-10-09T11:56:56;5.30;;;1.50;;
15383;SDS011;7790;53.022;12.968;2023-10-09T12:01:09;5.40;;;1.50;;
15383;SDS011;7790;53.022;12.968;2023-10-09T12:05:16;1.70;;;1.37;;
15383;SDS011;7790;53.022;12.968;2023-10-09T12:09:17;2.83;;;1.40;;
15383;SDS011;7790;53.022;12.968;2023-10-09T12:13:24;3.53;;;1.50;;
15383;SDS011;7790;53.022;12.968;2023-10-09T12:17:25;4.53;;;1.70;;
15383;SDS011;7790;53.022;12.968;2023-10-09T12:21:27;2.13;;;1.50;;
15383;SDS011;7790;53.022;12.968;2023-10-09T12:25:28;3.33;;;1.63;;
15383;SDS011;7790;53.022;12.968;2023-10-09T12:29:31;3.40;;;1.60;;
15383;SDS011;7790;53.022;12.968;2023-10-09T12:33:32;3.27;;;1.60;;
15383;SDS011;7790;53.022;12.968;2023-10-09T12:37:33;4.63;;;1.27;;
15383;SDS011;7790;53.022;12.968;2023-10-09T12:41:35;3.03;;;1.47;;
15383;SDS011;7790;53.022;12.968;2023-10-09T12:45:41;10.83;;;1.80;;
15383;SDS011;7790;53.022;12.968;2023-10-09T12:49:42;10.53;;;1.60;;
15383;SDS011;7790;53.022;12.968;2023-10-09T12:53:44;1.57;;;1.07;;
15383;SDS011;7790;53.022;12.968;2023-10-09T12:57:45;2.97;;;1.30;;
15383;SDS011;7790;53.022;12.968;2023-10-09T13:01:48;5.67;;;1.37;;
15383;SDS011;7790;53.022;12.968;2023-10-09T13:05:58;3.07;;;1.23;;
15383;SDS011;7790;53.022;12.968;2023-10-09T13:09:59;2.03;;;1.30;;
15383;SDS011;7790;53.022;12.968;2023-10-09T13:14:09;2.00;;;1.20;;
15383;SDS011;7790;53.022;12.968;2023-10-09T13:18:17;1.50;;;1.40;;
15383;SDS011;7790;53.022;12.968;2023-10-09T13:22:17;2.03;;;1.20;;
15383;SDS011;7790;53.022;12.968;2023-10-09T13:26:19;1.10;;;1.00;;
15383;SDS011;7790;53.022;12.968;2023-10-09T13:30:25;1.53;;;1.40;;
15383;SDS011;7790;53.022;12.968;2023-10-09T13:34:26;3.63;;;1.30;;
15383;SDS011;7790;53.022;12.968;2023-10-09T13:38:28;1.40;;;1.30;;
15383;SDS011;7790;53.022;12.968;2023-10-09T13:42:30;3.97;;;1.70;;
15383;SDS011;7790;53.022;12.968;2023-10-09T13:46:31;2.43;;;1.40;;
15383;SDS011;7790;53.022;12.968;2023-10-09T13:50:31;2.27;;;1.43;;
15383;SDS011;7790;53.022;12.968;2023-10-09T13:54:33;3.97;;;1.40;;
15383;SDS011;7790;53.022;12.968;2023-10-09T13:58:34;1.60;;;1.30;;
15383;SDS011;7790;53.022;12.968;2023-10-09T14:02:35;2.37;;;1.40;;
15383;SDS011;7790;53.022;12.968;2023-10-09T14:06:36;2.00;;;1.50;;
15383;SDS011;7790;53.022;12.968;2023-10-09T14:10:37;7.43;;;1.53;;
15383;SDS011;7790;53.022;12.968;2023-10-09T14:14:40;3.73;;;1.70;;
15383;SDS011;7790;53.022;12.968;2023-10-09T14:18:52;4.17;;;1.70;;
15383;SDS011;7790;53.022;12.968;2023-10-09T14:23:07;7.27;;;1.53;;
15383;SDS011;7790;53.022;12.968;2023-10-09T14:27:11;4.23;;;1.93;;
15383;SDS011;7790;53.022;12.968;2023-10-09T14:31:18;4.17;;;1.77;;
15383;SDS011;7790;53.022;12.968;2023-10-09T14:35:27;3.33;;;1.50;;
15383;SDS011;7790;53.022;12.968;2023-10-09T14:39:30;3.63;;;2.10;;
15383;SDS011;7790;53.022;12.968;2023-10-09T14:43:37;5.00;;;1.93;;
15383;SDS011;7790;53.022;12.968;2023-10-09T14:47:38;5.03;;;1.70;;
15383;SDS011;7790;53.022;12.968;2023-10-09T14:51:39;2.87;;;1.43;;
15383;SDS011;7790;53.022;12.968;2023-10-09T14:55:40;4.63;;;1.97;;
15383;SDS011;7790;53.022;12.968;2023-10-09T14:59:45;3.43;;;1.53;;
15383;SDS011;7790;53.022;12.968;2023-10-09T15:03:46;2.87;;;1.67;;
15383;SDS011;7790;53.022;12.968;2023-10-09T15:07:49;5.30;;;1.80;;
15383;SDS011;7790;53.022;12.968;2023-10-09T15:11:50;6.33;;;1.87;;
15383;SDS011;7790;53.022;12.968;2023-10-09T15:15:52;3.60;;;1.80;;
15383;SDS011;7790;53.022;12.968;2023-10-09T15:19:54;2.63;;;1.70;;
15383;SDS011;7790;53.022;12.968;2023-10-09T15:23:57;3.77;;;1.83;;
15383;SDS011;7790;53.022;12.968;2023-10-09T15:27:58;4.57;;;2.00;;
15383;SDS011;7790;53.022;12.968;2023-10-09T15:32:00;3.97;;;1.70;;
15383;SDS011;7790;53.022;12.968;2023-10-09T15:36:14;3.00;;;1.87;;
15383;SDS011;7790;53.022;12.968;2023-10-09T15:40:20;5.10;;;1.87;;
15383;SDS011;7790;53.022;12.968;2023-10-09T15:44:24;5.20;;;1.70;;
15383;SDS011;7790;53.022;12.968;2023-10-09T15:48:25;2.00;;;1.50;;
15383;SDS011;7790;53.022;12.968;2023-10-09T15:52:26;4.30;;;1.70;;
15383;SDS011;7790;53.022;12.968;2023-10-09T15:56:28;6.43;;;2.07;;
15383;SDS011;7790;53.022;12.968;2023-10-09T16:00:29;12.33;;;2.67;;
15383;SDS011;7790;53.022;12.968;2023-10-09T16:04:30;6.10;;;2.60;;
15383;SDS011;7790;53.022;12.968;2023-10-09T16:08:34;6.67;;;2.60;;
15383;SDS011;7790;53.022;12.968;2023-10-09T16:12:37;4.13;;;2.80;;
15383;SDS011;7790;53.022;12.968;2023-10-09T16:16:39;4.93;;;2.80;;
15383;SDS011;7790;53.022;12.968;2023-10-09T16:20:43;4.70;;;2.80;;
15383;SDS011;7790;53.022;12.968;2023-10-09T16:24:46;6.57;;;2.90;;
15383;SDS011;7790;53.022;12.968;2023-10-09T16:28:47;7.23;;;2.57;;
15383;SDS011;7790;53.022;12.968;2023-10-09T16:32:49;3.20;;;2.17;;
15383;SDS011;7790;53.022;12.968;2023-10-09T16:36:52;5.30;;;2.37;;
15383;SDS011;7790;53.022;12.968;2023-10-09T16:40:53;7.00;;;2.37;;
15383;SDS011;7790;53.022;12.968;2023-10-09T16:44:55;6.43;;;2.07;;
15383;SDS011;7790;53.022;12.968;2023-10-09T16:48:57;5.93;;;2.20;;
15383;SDS011;7790;53.022;12.968;2023-10-09T16:52:59;5.70;;;2.33;;
15383;SDS011;7790;53.022;12.968;2023-10-09T16:57:00;9.07;;;5.80;;
15383;SDS011;7790;53.022;12.968;2023-10-09T17:01:01;29.63;;;15.03;;
15383;SDS011;7790;53.022;12.968;2023-10-09T17:05:04;56.20;;;41.30;;
15383;SDS011;7790;53.022;12.968;2023-10-09T17:09:09;115.00;;;91.67;;
15383;SDS011;7790;53.022;12.968;2023-10-09T17:13:14;156.30;;;120.53;;
15383;SDS011;7790;53.022;12.968;2023-10-09T17:17:20;200.30;;;154.73;;
15383;SDS011;7790;53.022;12.968;2023-10-09T17:21:23;205.97;;;163.83;;
15383;SDS011;7790;53.022;12.968;2023-10-09T17:25:24;235.13;;;179.83;;
15383;SDS011;7790;53.022;12.968;2023-10-09T17:29:25;256.73;;;202.97;;
15383;SDS011;7790;53.022;12.968;2023-10-09T17:33:27;330.27;;;268.10;;
15383;SDS011;7790;53.022;12.968;2023-10-09T17:37:28;351.53;;;292.50;;
15383;SDS011;7790;53.022;12.968;2023-10-09T17:41:29;354.63;;;291.27;;
15383;SDS011;7790;53.022;12.968;2023-10-09T17:45:31;356.30;;;301.80;;
15383;SDS011;7790;53.022;12.968;2023-10-09T17:49:34;335.67;;;280.77;;
15383;SDS011;7790;53.022;12.968;2023-10-09T17:53:37;327.20;;;273.50;;
15383;SDS011;7790;53.022;12.968;2023-10-09T17:57:38;289.77;;;245.80;;
15383;SDS011;7790;53.022;12.968;2023-10-09T18:01:40;286.17;;;238.80;;
15383;SDS011;7790;53.022;12.968;2023-10-09T18:05:42;275.30;;;229.83;;
15383;SDS011;7790;53.022;12.968;2023-10-09T18:09:45;267.37;;;222.93;;
15383;SDS011;7790;53.022;12.968;2023-10-09T18:13:52;253.93;;;211.13;;
15383;SDS011;7790;53.022;12.968;2023-10-09T18:17:54;241.27;;;204.03;;
15383;SDS011;7790;53.022;12.968;2023-10-09T18:21:55;235.80;;;198.17;;
15383;SDS011;7790;53.022;12.968;2023-10-09T18:25:56;227.87;;;188.90;;
15383;SDS011;7790;53.022;12.968;2023-10-09T18:29:58;223.30;;;181.47;;
15383;SDS011;7790;53.022;12.968;2023-10-09T18:33:59;211.03;;;174.47;;
15383;SDS011;7790;53.022;12.968;2023-10-09T18:38:00;202.53;;;167.27;;
15383;SDS011;7790;53.022;12.968;2023-10-09T18:42:00;192.63;;;156.93;;
15383;SDS011;7790;53.022;12.968;2023-10-09T18:46:05;185.23;;;152.17;;
15383;SDS011;7790;53.022;12.968;2023-10-09T18:50:07;184.30;;;150.53;;
15383;SDS011;7790;53.022;12.968;2023-10-09T18:54:12;180.03;;;146.27;;
15383;SDS011;7790;53.022;12.968;2023-10-09T18:58:12;167.03;;;140.53;;
15383;SDS011;7790;53.022;12.968;2023-10-09T19:02:18;168.37;;;139.20;;
15383;SDS011;7790;53.022;12.968;2023-10-09T19:06:19;165.83;;;132.70;;
15383;SDS011;7790;53.022;12.968;2023-10-09T19:10:24;154.07;;;126.10;;
15383;SDS011;7790;53.022;12.968;2023-10-09T19:14:25;155.13;;;126.83;;
15383;SDS011;7790;53.022;12.968;2023-10-09T19:18:29;145.33;;;118.30;;
15383;SDS011;7790;53.022;12.968;2023-10-09T19:22:30;135.37;;;110.13;;
15383;SDS011;7790;53.022;12.968;2023-10-09T19:26:31;138.03;;;113.20;;
15383;SDS011;7790;53.022;12.968;2023-10-09T19:30:34;139.73;;;112.10;;
15383;SDS011;7790;53.022;12.968;2023-10-09T19:34:35;126.80;;;104.50;;
15383;SDS011;7790;53.022;12.968;2023-10-09T19:38:40;122.47;;;102.30;;
15383;SDS011;7790;53.022;12.968;2023-10-09T19:42:42;124.77;;;99.37;;
15383;SDS011;7790;53.022;12.968;2023-10-09T19:46:43;122.20;;;96.63;;
15383;SDS011;7790;53.022;12.968;2023-10-09T19:50:44;114.00;;;92.77;;
15383;SDS011;7790;53.022;12.968;2023-10-09T19:54:45;113.60;;;96.00;;
15383;SDS011;7790;53.022;12.968;2023-10-09T19:58:46;112.30;;;92.23;;
15383;SDS011;7790;53.022;12.968;2023-10-09T20:02:48;107.17;;;86.17;;
15383;SDS011;7790;53.022;12.968;2023-10-09T20:06:49;101.73;;;83.27;;
15383;SDS011;7790;53.022;12.968;2023-10-09T20:10:50;99.27;;;82.07;;
15383;SDS011;7790;53.022;12.968;2023-10-09T20:14:55;95.53;;;77.20;;
15383;SDS011;7790;53.022;12.968;2023-10-09T20:18:57;91.87;;;75.23;;
15383;SDS011;7790;53.022;12.968;2023-10-09T20:22:58;88.40;;;72.10;;
15383;SDS011;7790;53.022;12.968;2023-10-09T20:27:03;87.20;;;70.80;;
15383;SDS011;7790;53.022;12.968;2023-10-09T20:31:05;88.23;;;68.03;;
15383;SDS011;7790;53.022;12.968;2023-10-09T20:35:06;89.67;;;67.30;;
15383;SDS011;7790;53.022;12.968;2023-10-09T20:39:12;84.30;;;65.30;;
15383;SDS011;7790;53.022;12.968;2023-10-09T20:43:13;77.37;;;62.00;;
15383;SDS011;7790;53.022;12.968;2023-10-09T20:47:13;78.23;;;61.23;;
15383;SDS011;7790;53.022;12.968;2023-10-09T20:51:14;69.00;;;56.60;;
15383;SDS011;7790;53.022;12.968;2023-10-09T20:55:16;69.47;;;56.93;;
15383;SDS011;7790;53.022;12.968;2023-10-09T20:59:20;67.07;;;55.27;;
15383;SDS011;7790;53.022;12.968;2023-10-09T21:03:21;66.20;;;52.80;;
15383;SDS011;7790;53.022;12.968;2023-10-09T21:07:22;61.60;;;50.50;;
15383;SDS011;7790;53.022;12.968;2023-10-09T21:11:24;64.43;;;49.97;;
15383;SDS011;7790;53.022;12.968;2023-10-09T21:15:25;60.73;;;47.90;;
15383;SDS011;7790;53.022;12.968;2023-10-09T21:19:27;57.77;;;47.13;;
15383;SDS011;7790;53.022;12.968;2023-10-09T21:23:29;54.00;;;44.30;;
15383;SDS011;7790;53.022;12.968;2023-10-09T21:27:32;54.67;;;44.43;;
15383;SDS011;7790;53.022;12.968;2023-10-09T21:31:34;50.07;;;41.50;;
15383;SDS011;7790;53.022;12.968;2023-10-09T21:35:34;48.53;;;40.77;;
15383;SDS011;7790;53.022;12.968;2023-10-09T21:39:38;49.43;;;39.47;;
15383;SDS011;7790;53.022;12.968;2023-10-09T21:43:39;47.03;;;38.77;;
15383;SDS011;7790;53.022;12.968;2023-10-09T21:47:41;44.90;;;37.90;;
15383;SDS011;7790;53.022;12.968;2023-10-09T21:51:42;47.90;;;37.60;;
15383;SDS011;7790;53.022;12.968;2023-10-09T21:55:43;43.20;;;36.03;;
15383;SDS011;7790;53.022;12.968;2023-10-09T21:59:44;42.37;;;34.83;;
15383;SDS011;7790;53.022;12.968;2023-10-09T22:03:46;39.90;;;33.17;;
15383;SDS011;7790;53.022;12.968;2023-10-09T22:07:48;38.90;;;32.67;;
15383;SDS011;7790;53.022;12.968;2023-10-09T22:11:49;38.90;;;32.77;;
15383;SDS011;7790;53.022;12.968;2023-10-09T22:15:51;37.33;;;29.90;;
15383;SDS011;7790;53.022;12.968;2023-10-09T22:19:52;36.47;;;29.20;;
15383;SDS011;7790;53.022;12.968;2023-10-09T22:23:53;34.67;;;28.90;;
15383;SDS011;7790;53.022;12.968;2023-10-09T22:27:54;34.33;;;27.67;;
15383;SDS011;7790;53.022;12.968;2023-10-09T22:31:59;30.80;;;26.93;;
15383;SDS011;7790;53.022;12.968;2023-10-09T22:36:00;29.60;;;26.30;;
15383;SDS011;7790;53.022;12.968;2023-10-09T22:40:00;29.63;;;25.30;;
15383;SDS011;7790;53.022;12.968;2023-10-09T22:44:05;29.50;;;24.20;;
15383;SDS011;7790;53.022;12.968;2023-10-09T22:48:10;31.20;;;25.17;;
15383;SDS011;7790;53.022;12.968;2023-10-09T22:52:17;26.00;;;23.00;;
15383;SDS011;7790;53.022;12.968;2023-10-09T22:56:23;30.73;;;24.10;;
15383;SDS011;7790;53.022;12.968;2023-10-09T23:00:24;26.67;;;22.37;;
15383;SDS011;7790;53.022;12.968;2023-10-09T23:04:39;26.00;;;22.50;;
15383;SDS011;7790;53.022;12.968;2023-10-09T23:08:41;25.87;;;21.27;;
15383;SDS011;7790;53.022;12.968;2023-10-09T23:12:42;23.27;;;20.43;;
15383;SDS011;7790;53.022;12.968;2023-10-09T23:16:49;25.30;;;20.80;;
15383;SDS011;7790;53.022;12.968;2023-10-09T23:21:06;23.63;;;19.43;;
15383;SDS011;7790;53.022;12.968;2023-10-09T23:25:27;23.47;;;18.77;;
15383;SDS011;7790;53.022;12.968;2023-10-09T23:29:34;22.03;;;18.43;;
15383;SDS011;7790;53.022;12.968;2023-10-09T23:33:34;21.27;;;17.83;;
15383;SDS011;7790;53.022;12.968;2023-10-09T23:37:35;20.27;;;17.43;;
15383;SDS011;7790;53.022;12.968;2023-10-09T23:42:05;19.17;;;16.90;;
15383;SDS011;7790;53.022;12.968;2023-10-09T23:46:15;18.40;;;16.50;;
15383;SDS011;7790;53.022;12.968;2023-10-09T23:50:17;18.60;;;15.40;;
15383;SDS011;7790;53.022;12.968;2023-10-09T23:54:17;19.07;;;15.87;;
15383;SDS011;7790;53.022;12.968;2023-10-09T23:58:23;16.77;;;15.00;;
